createdAt,value
2023-04-12T00:01:24.310Z,0.93
2023-04-12T00:03:54.903Z,0.82
2023-04-12T00:06:32.673Z,1.80
2023-04-12T00:09:04.349Z,0.68
2023-04-12T00:11:34.994Z,0.88
2023-04-12T00:14:05.358Z,0.75
2023-04-12T00:16:37.187Z,0.63
2023-04-12T00:19:07.746Z,0.75
2023-04-12T00:21:40.686Z,0.43
2023-04-12T00:24:11.495Z,0.98
2023-04-12T00:26:41.843Z,1.05
2023-04-12T00:29:12.201Z,1.17
2023-04-12T00:31:42.580Z,1.48
2023-04-12T00:34:13.047Z,0.47
2023-04-12T00:36:46.066Z,0.85
2023-04-12T00:39:16.594Z,0.80
2023-04-12T00:41:46.870Z,0.60
2023-04-12T00:44:18.429Z,0.75
2023-04-12T00:46:48.977Z,0.77
2023-04-12T00:49:19.371Z,0.45
2023-04-12T00:51:53.205Z,0.75
2023-04-12T00:54:23.546Z,0.77
2023-04-12T00:56:53.920Z,0.90
2023-04-12T00:59:24.245Z,0.77
2023-04-12T01:01:54.807Z,0.95
2023-04-12T01:04:26.593Z,0.55
2023-04-12T01:07:10.297Z,0.63
2023-04-12T01:09:46.978Z,1.10
2023-04-12T01:12:20.675Z,1.05
2023-04-12T01:14:55.797Z,0.80
2023-04-12T01:17:27.758Z,0.63
2023-04-12T01:20:00.040Z,0.63
2023-04-12T01:22:42.062Z,1.08
2023-04-12T01:25:24.395Z,0.63
2023-04-12T01:28:00.144Z,0.77
2023-04-12T01:30:31.737Z,0.90
2023-04-12T01:33:04.147Z,0.70
2023-04-12T01:35:35.901Z,1.05
2023-04-12T01:38:07.040Z,1.13
2023-04-12T01:40:38.254Z,1.15
2023-04-12T01:43:12.278Z,0.98
2023-04-12T01:45:43.079Z,2.45
2023-04-12T01:48:14.129Z,0.93
2023-04-12T01:50:47.010Z,0.88
2023-04-12T01:53:19.878Z,1.00
2023-04-12T01:55:52.838Z,0.65
2023-04-12T01:58:26.602Z,0.75
2023-04-12T02:00:58.323Z,0.75
2023-04-12T02:03:30.580Z,0.88
2023-04-12T02:06:01.647Z,0.60
2023-04-12T02:08:31.928Z,1.15
2023-04-12T02:11:02.291Z,1.45
2023-04-12T02:13:35.884Z,0.88
2023-04-12T02:16:08.072Z,0.85
2023-04-12T02:18:38.610Z,1.20
2023-04-12T02:21:09.566Z,0.60
2023-04-12T02:23:39.865Z,0.43
2023-04-12T02:26:10.399Z,0.63
2023-04-12T02:28:43.402Z,0.90
2023-04-12T02:31:13.758Z,2.05
2023-04-12T02:33:44.096Z,0.43
2023-04-12T02:36:14.716Z,1.33
2023-04-12T02:38:45.006Z,1.15
2023-04-12T02:41:20.748Z,0.98
2023-04-12T02:43:53.714Z,0.98
2023-04-12T02:46:27.504Z,1.10
2023-04-12T02:48:57.887Z,0.35
2023-04-12T02:51:28.310Z,0.68
2023-04-12T02:53:58.815Z,1.05
2023-04-12T02:56:30.212Z,0.63
2023-04-12T03:01:33.951Z,0.60
2023-04-12T03:04:04.899Z,0.88
2023-04-12T03:06:35.729Z,0.88
2023-04-12T03:09:06.933Z,1.10
2023-04-12T03:14:07.765Z,0.77
2023-04-12T03:16:40.718Z,0.95
2023-04-12T03:19:10.992Z,0.95
2023-04-12T03:21:41.310Z,1.08
2023-04-12T03:24:11.896Z,1.50
2023-04-12T03:26:42.450Z,2.92
2023-04-12T03:29:12.780Z,0.65
2023-04-12T03:31:45.805Z,1.90
2023-04-12T03:34:16.546Z,2.58
2023-04-12T03:36:47.238Z,1.13
2023-04-12T03:39:17.610Z,1.25
2023-04-12T03:41:48.228Z,1.50
2023-04-12T03:44:18.558Z,1.05
2023-04-12T03:46:51.591Z,0.82
2023-04-12T03:49:21.942Z,0.82
2023-04-12T03:51:52.669Z,2.97
2023-04-12T03:54:23.276Z,1.27
2023-04-12T03:56:53.610Z,0.88
2023-04-12T03:59:23.919Z,0.95
2023-04-12T04:01:56.946Z,0.95
2023-04-12T04:04:27.607Z,1.00
2023-04-12T04:06:58.334Z,1.35
2023-04-12T04:09:28.665Z,0.80
2023-04-12T04:11:58.989Z,1.08
2023-04-12T04:14:29.423Z,0.80
2023-04-12T04:17:02.369Z,1.60
2023-04-12T04:19:32.673Z,1.17
2023-04-12T04:22:03.119Z,1.20
2023-04-12T04:24:34.439Z,0.65
2023-04-12T04:27:04.804Z,1.05
2023-04-12T04:29:35.121Z,1.05
2023-04-12T04:32:08.414Z,0.57
2023-04-12T04:34:38.875Z,0.80
2023-04-12T04:37:09.998Z,0.95
2023-04-12T04:39:40.320Z,1.05
2023-04-12T04:42:11.315Z,0.80
2023-04-12T04:44:42.918Z,0.75
2023-04-12T04:47:15.890Z,2.22
2023-04-12T04:49:48.291Z,0.57
2023-04-12T04:52:18.715Z,1.17
2023-04-12T04:54:49.127Z,1.30
2023-04-12T04:57:19.496Z,0.93
2023-04-12T04:59:49.781Z,1.33
2023-04-12T05:02:23.072Z,1.00
2023-04-12T05:04:56.551Z,1.33
2023-04-12T05:07:27.771Z,1.35
2023-04-12T05:12:28.068Z,1.63
2023-04-12T05:15:11.186Z,1.73
2023-04-12T05:17:45.100Z,2.17
2023-04-12T05:20:15.450Z,1.88
2023-04-12T05:22:45.761Z,2.33
2023-04-12T05:25:16.190Z,2.20
2023-04-12T05:27:46.545Z,2.13
2023-04-12T05:30:17.033Z,2.70
2023-04-12T05:32:50.089Z,2.33
2023-04-12T05:35:20.589Z,2.95
2023-04-12T05:37:51.033Z,2.83
2023-04-12T05:40:21.544Z,2.90
2023-04-12T05:42:52.096Z,4.57
2023-04-12T05:45:22.488Z,3.88
2023-04-12T05:47:55.550Z,3.85
2023-04-12T05:50:26.030Z,3.90
2023-04-12T05:52:56.566Z,4.75
2023-04-12T05:55:26.930Z,4.95
2023-04-12T05:57:58.818Z,4.95
2023-04-12T06:00:29.306Z,4.30
2023-04-12T06:03:02.493Z,4.53
2023-04-12T06:05:33.000Z,4.25
2023-04-12T06:08:05.561Z,3.75
2023-04-12T06:10:36.036Z,3.63
2023-04-12T06:13:06.388Z,4.70
2023-04-12T06:15:37.380Z,4.85
2023-04-12T06:18:10.755Z,5.95
2023-04-12T06:20:43.761Z,4.90
2023-04-12T06:23:14.069Z,5.43
2023-04-12T06:25:44.366Z,4.90
2023-04-12T06:28:17.056Z,5.28
2023-04-12T06:30:47.382Z,5.80
2023-04-12T06:33:22.743Z,6.22
2023-04-12T06:35:53.262Z,5.68
2023-04-12T06:38:23.713Z,4.40
2023-04-12T06:40:54.012Z,4.63
2023-04-12T06:43:24.322Z,3.85
2023-04-12T06:45:54.674Z,3.42
2023-04-12T06:48:27.621Z,4.85
2023-04-12T06:50:57.921Z,3.97
2023-04-12T06:53:28.231Z,4.55
2023-04-12T06:55:58.579Z,4.53
2023-04-12T06:58:31.043Z,5.28
2023-04-12T07:01:07.929Z,5.15
2023-04-12T07:03:41.107Z,10.38
2023-04-12T07:06:24.424Z,6.15
2023-04-12T07:08:56.448Z,6.68
2023-04-12T07:11:28.527Z,5.93
2023-04-12T07:13:59.366Z,6.40
2023-04-12T07:16:29.723Z,5.07
2023-04-12T07:19:02.742Z,5.40
2023-04-12T07:21:33.042Z,5.03
2023-04-12T07:24:03.946Z,4.50
2023-04-12T07:26:34.323Z,3.63
2023-04-12T07:29:04.696Z,5.15
2023-04-12T07:31:36.060Z,4.90
2023-04-12T07:34:09.105Z,4.75
2023-04-12T07:36:39.432Z,5.45
2023-04-12T07:39:12.216Z,5.25
2023-04-12T07:41:43.508Z,4.88
2023-04-12T07:44:13.925Z,4.00
2023-04-12T07:46:44.733Z,4.97
2023-04-12T07:49:17.709Z,4.30
2023-04-12T07:51:48.028Z,3.78
2023-04-12T07:54:18.403Z,3.55
2023-04-12T07:57:00.879Z,3.90
2023-04-12T07:59:31.351Z,3.30
2023-04-12T08:02:02.232Z,4.80
2023-04-12T08:07:05.396Z,4.05
2023-04-12T08:09:36.100Z,3.75
2023-04-12T08:12:06.432Z,4.03
2023-04-12T08:14:39.143Z,4.25
2023-04-12T08:17:11.433Z,4.65
2023-04-12T08:22:14.456Z,3.70
2023-04-12T08:24:44.850Z,3.35
2023-04-12T08:27:16.667Z,4.15
2023-04-12T08:29:47.019Z,4.43
2023-04-12T08:32:17.479Z,3.90
2023-04-12T08:34:47.868Z,4.78
2023-04-12T08:37:20.798Z,4.82
2023-04-12T08:39:51.196Z,4.28
2023-04-12T08:42:22.065Z,3.97
2023-04-12T08:44:53.963Z,4.15
2023-04-12T08:47:24.653Z,3.13
2023-04-12T08:49:55.529Z,2.85
2023-04-12T08:52:28.412Z,2.80
2023-04-12T08:54:58.937Z,3.33
2023-04-12T08:57:31.297Z,2.95
2023-04-12T09:00:03.738Z,2.75
2023-04-12T09:02:34.250Z,2.13
2023-04-12T09:05:05.053Z,3.10
2023-04-12T09:07:40.437Z,2.88
2023-04-12T09:10:11.411Z,3.45
2023-04-12T09:12:51.014Z,3.60
2023-04-12T09:15:23.106Z,3.53
2023-04-12T09:17:53.670Z,3.05
2023-04-12T09:20:27.913Z,4.93
2023-04-12T09:23:01.272Z,3.92
2023-04-12T09:25:52.102Z,3.65
2023-04-12T09:28:23.602Z,2.92
2023-04-12T09:30:57.099Z,3.00
2023-04-12T09:33:36.087Z,3.40
2023-04-12T09:36:09.632Z,3.10
2023-04-12T09:38:44.050Z,2.55
2023-04-12T09:41:26.861Z,2.60
2023-04-12T09:43:57.910Z,2.78
2023-04-12T09:46:28.572Z,2.35
2023-04-12T09:48:59.865Z,2.60
2023-04-12T09:51:31.461Z,2.25
2023-04-12T09:54:05.188Z,1.85
2023-04-12T09:56:36.803Z,2.10
2023-04-12T09:59:08.113Z,2.30
2023-04-12T10:01:39.535Z,1.25
2023-04-12T10:04:10.635Z,2.63
2023-04-12T10:09:16.217Z,4.05
2023-04-12T10:11:48.606Z,4.97
2023-04-12T10:14:20.842Z,5.00
2023-04-12T10:16:57.969Z,5.03
2023-04-12T10:19:29.608Z,5.88
2023-04-12T10:22:00.601Z,5.68
2023-04-12T10:24:33.535Z,6.63
2023-04-12T10:27:04.790Z,5.82
2023-04-12T10:29:37.436Z,5.95
2023-04-12T10:32:23.166Z,5.07
2023-04-12T10:34:57.155Z,3.67
2023-04-12T10:37:49.280Z,3.30
2023-04-12T10:40:23.023Z,3.00
2023-04-12T10:43:13.462Z,3.00
2023-04-12T10:45:44.147Z,3.58
2023-04-12T10:48:32.412Z,4.57
2023-04-12T10:51:18.728Z,4.38
2023-04-12T10:53:50.256Z,5.32
2023-04-12T10:56:35.814Z,4.72
2023-04-12T10:59:08.953Z,4.43
2023-04-12T11:01:40.044Z,5.93
2023-04-12T11:04:21.086Z,3.90
2023-04-12T11:06:53.837Z,3.53
2023-04-12T11:09:25.842Z,2.75
2023-04-12T11:11:59.836Z,3.20
2023-04-12T11:14:38.201Z,3.67
2023-04-12T11:17:24.284Z,2.03
2023-04-12T11:19:56.197Z,2.22
2023-04-12T11:22:27.490Z,2.13
2023-04-12T11:24:58.776Z,1.48
2023-04-12T11:27:30.229Z,1.55
2023-04-12T11:30:03.537Z,2.28
2023-04-12T11:32:35.472Z,1.38
2023-04-12T11:35:06.776Z,1.02
2023-04-12T11:37:38.322Z,1.15
2023-04-12T11:40:09.659Z,1.10
2023-04-12T11:42:40.211Z,1.20
2023-04-12T11:45:18.178Z,1.23
2023-04-12T11:47:49.513Z,1.17
2023-04-12T11:50:32.674Z,3.42
2023-04-12T11:53:14.083Z,1.13
2023-04-12T11:55:44.931Z,1.17
2023-04-12T11:58:15.250Z,1.15
2023-04-12T12:00:49.335Z,0.35
2023-04-12T12:03:20.174Z,0.63
2023-04-12T12:05:51.525Z,0.55
2023-04-12T12:11:04.060Z,0.95
2023-04-12T12:13:47.929Z,0.77
2023-04-12T12:16:21.525Z,0.93
2023-04-12T12:18:53.086Z,0.60
2023-04-12T12:21:23.831Z,0.70
2023-04-12T12:23:54.692Z,0.43
2023-04-12T12:26:25.982Z,0.82
2023-04-12T12:28:56.922Z,0.47
2023-04-12T12:31:31.375Z,1.88
2023-04-12T12:34:05.097Z,0.75
2023-04-12T12:36:39.153Z,0.93
2023-04-12T12:39:11.420Z,0.88
2023-04-12T12:41:42.812Z,0.65
2023-04-12T12:44:13.168Z,0.88
2023-04-12T12:46:53.355Z,0.70
2023-04-12T12:49:25.776Z,0.98
2023-04-12T12:51:56.170Z,1.08
2023-04-12T12:56:59.970Z,1.00
2023-04-12T12:59:30.302Z,0.90
2023-04-12T13:02:03.384Z,1.38
2023-04-12T13:04:33.970Z,1.17
2023-04-12T13:07:04.572Z,1.17
2023-04-12T13:09:35.702Z,1.65
2023-04-12T13:12:06.179Z,0.68
2023-04-12T13:14:36.832Z,1.17
2023-04-12T13:17:09.810Z,1.10
2023-04-12T13:19:41.002Z,0.70
2023-04-12T13:24:42.144Z,0.93
2023-04-12T13:27:13.937Z,0.75
2023-04-12T13:29:45.530Z,0.73
2023-04-12T13:32:18.877Z,0.70
2023-04-12T13:34:49.299Z,0.95
2023-04-12T13:37:19.810Z,0.80
2023-04-12T13:39:50.193Z,0.60
2023-04-12T13:42:20.547Z,0.63
2023-04-12T13:44:51.487Z,0.47
2023-04-12T13:47:24.573Z,0.95
2023-04-12T13:49:54.981Z,1.55
2023-04-12T13:52:25.313Z,0.50
2023-04-12T13:54:55.638Z,0.77
2023-04-12T13:57:25.988Z,0.95
2023-04-12T13:59:56.271Z,0.73
2023-04-12T14:02:31.348Z,1.70
2023-04-12T14:05:02.202Z,0.90
2023-04-12T14:07:32.666Z,1.08
2023-04-12T14:10:03.018Z,1.08
2023-04-12T14:12:33.381Z,1.48
2023-04-12T14:15:03.899Z,1.10
2023-04-12T14:17:37.012Z,0.93
2023-04-12T14:20:09.112Z,0.57
2023-04-12T14:22:39.493Z,0.75
2023-04-12T14:25:11.942Z,1.15
2023-04-12T14:27:42.294Z,0.60
2023-04-12T14:30:13.124Z,1.20
2023-04-12T14:32:47.447Z,0.57
2023-04-12T14:35:18.577Z,0.95
2023-04-12T14:37:48.944Z,1.15
2023-04-12T14:40:19.317Z,1.40
2023-04-12T14:42:49.703Z,1.38
2023-04-12T14:45:21.164Z,1.20
2023-04-12T14:47:54.243Z,1.60
2023-04-12T14:50:24.654Z,2.10
2023-04-12T14:52:55.148Z,2.35
2023-04-12T14:55:26.423Z,1.67
2023-04-12T14:57:56.782Z,1.13
2023-04-12T15:00:29.592Z,0.75
2023-04-12T15:03:03.316Z,0.57
2023-04-12T15:05:33.814Z,0.60
2023-04-12T15:08:04.570Z,1.00
2023-04-12T15:10:34.883Z,1.17
2023-04-12T15:13:05.241Z,0.57
2023-04-12T15:15:35.565Z,0.47
2023-04-12T15:18:08.696Z,0.43
2023-04-12T15:20:39.003Z,1.90
2023-04-12T15:23:09.529Z,0.73
2023-04-12T15:25:39.805Z,0.65
2023-04-12T15:28:10.142Z,1.05
2023-04-12T15:30:40.441Z,0.38
2023-04-12T15:33:13.440Z,0.90
2023-04-12T15:35:43.746Z,0.77
2023-04-12T15:38:16.987Z,0.65
2023-04-12T15:40:49.499Z,0.38
2023-04-12T15:43:19.846Z,0.68
2023-04-12T15:45:52.990Z,0.73
2023-04-12T15:48:26.809Z,0.70
2023-04-12T15:50:57.402Z,0.60
2023-04-12T15:53:28.592Z,0.50
2023-04-12T15:55:59.250Z,0.65
2023-04-12T15:58:29.932Z,0.73
2023-04-12T16:01:00.233Z,0.52
2023-04-12T16:03:34.216Z,0.47
2023-04-12T16:06:05.370Z,0.40
2023-04-12T16:11:06.375Z,0.63
2023-04-12T16:13:36.700Z,0.55
2023-04-12T16:16:07.607Z,0.47
2023-04-12T16:21:11.578Z,1.05
2023-04-12T16:23:41.965Z,0.47
2023-04-12T16:26:12.527Z,0.68
2023-04-12T16:28:43.598Z,0.35
2023-04-12T16:33:47.136Z,0.25
2023-04-12T16:36:23.546Z,0.38
2023-04-12T16:38:55.405Z,0.75
2023-04-12T16:41:26.044Z,1.35
2023-04-12T16:43:59.082Z,0.55
2023-04-12T16:46:29.486Z,0.57
2023-04-12T16:49:03.912Z,0.47
2023-04-12T16:51:37.591Z,1.52
2023-04-12T16:54:08.301Z,1.42
2023-04-12T16:56:38.638Z,0.88
2023-04-12T16:59:09.942Z,0.47
2023-04-12T17:01:40.355Z,0.70
2023-04-12T17:04:10.963Z,0.30
2023-04-12T17:06:44.509Z,0.40
2023-04-12T17:09:15.559Z,0.50
2023-04-12T17:14:15.918Z,1.40
2023-04-12T17:16:46.506Z,0.68
2023-04-12T17:19:17.131Z,0.47
2023-04-12T17:21:50.077Z,0.95
2023-04-12T17:24:20.401Z,0.68
2023-04-12T17:26:50.719Z,0.50
2023-04-12T17:29:21.828Z,0.60
2023-04-12T17:31:54.389Z,0.88
2023-04-12T17:34:25.594Z,1.20
2023-04-12T17:36:58.522Z,0.35
2023-04-12T17:39:28.879Z,0.68
2023-04-12T17:41:59.161Z,0.65
2023-04-12T17:44:29.529Z,0.38
2023-04-12T17:46:59.838Z,0.75
2023-04-12T17:49:30.443Z,0.95
2023-04-12T17:52:03.823Z,0.88
2023-04-12T17:54:34.841Z,0.70
2023-04-12T17:57:05.224Z,0.88
2023-04-12T17:59:35.685Z,0.50
2023-04-12T18:02:06.231Z,0.45
2023-04-12T18:04:37.180Z,0.93
2023-04-12T18:07:11.743Z,0.80
2023-04-12T18:09:44.916Z,0.63
2023-04-12T18:12:15.291Z,0.60
2023-04-12T18:14:45.680Z,0.85
2023-04-12T18:17:16.169Z,0.60
2023-04-12T18:19:46.564Z,0.80
2023-04-12T18:22:19.551Z,0.47
2023-04-12T18:24:49.961Z,0.40
2023-04-12T18:27:20.359Z,0.63
2023-04-12T18:29:51.859Z,0.52
2023-04-12T18:32:22.227Z,0.60
2023-04-12T18:34:53.011Z,1.00
2023-04-12T18:37:25.985Z,0.57
2023-04-12T18:39:56.346Z,1.23
2023-04-12T18:42:26.670Z,0.88
2023-04-12T18:44:58.503Z,0.88
2023-04-12T18:47:29.695Z,1.05
2023-04-12T18:50:00.101Z,0.60
2023-04-12T18:52:33.035Z,0.45
2023-04-12T18:55:03.431Z,1.42
2023-04-12T18:57:33.973Z,0.65
2023-04-12T19:00:05.822Z,0.63
2023-04-12T19:02:37.569Z,0.70
2023-04-12T19:05:10.447Z,0.88
2023-04-12T19:07:43.333Z,0.50
2023-04-12T19:10:13.754Z,1.00
2023-04-12T19:12:44.041Z,0.52
2023-04-12T19:15:14.911Z,0.40
2023-04-12T19:17:45.272Z,0.47
2023-04-12T19:20:16.435Z,0.98
2023-04-12T19:22:49.354Z,0.45
2023-04-12T19:25:20.401Z,0.57
2023-04-12T19:27:50.921Z,0.55
2023-04-12T19:30:21.561Z,0.55
2023-04-12T19:32:51.907Z,0.85
2023-04-12T19:35:22.352Z,0.98
2023-04-12T19:37:55.501Z,0.75
2023-04-12T19:40:25.882Z,1.13
2023-04-12T19:42:56.516Z,1.25
2023-04-12T19:45:28.244Z,0.93
2023-04-12T19:47:58.617Z,0.85
2023-04-12T19:50:31.144Z,0.90
2023-04-12T19:53:04.275Z,0.65
2023-04-12T19:55:34.665Z,0.60
2023-04-12T19:58:08.289Z,1.23
2023-04-12T20:00:39.915Z,0.98
2023-04-12T20:03:11.190Z,1.13
2023-04-12T20:05:43.613Z,0.85
2023-04-12T20:08:17.129Z,0.68
2023-04-12T20:10:47.515Z,1.10
2023-04-12T20:13:18.113Z,0.88
2023-04-12T20:15:48.950Z,0.45
2023-04-12T20:18:19.275Z,0.93
2023-04-12T20:20:50.022Z,0.75
2023-04-12T20:23:22.995Z,1.00
2023-04-12T20:25:53.371Z,0.55
2023-04-12T20:28:23.876Z,0.52
2023-04-12T20:30:54.322Z,0.85
2023-04-12T20:33:24.766Z,0.98
2023-04-12T20:35:55.109Z,0.90
2023-04-12T20:38:29.725Z,0.88
2023-04-12T20:41:00.456Z,1.08
2023-04-12T20:43:30.918Z,1.02
2023-04-12T20:46:08.950Z,0.93
2023-04-12T20:48:39.336Z,0.82
2023-04-12T20:51:09.818Z,0.55
2023-04-12T20:53:43.834Z,0.45
2023-04-12T20:56:14.500Z,0.57
2023-04-12T20:58:44.990Z,0.82
2023-04-12T21:01:16.305Z,1.33
2023-04-12T21:03:46.900Z,0.55
2023-04-12T21:06:18.170Z,1.08
2023-04-12T21:08:51.348Z,0.45
2023-04-12T21:11:21.665Z,1.60
2023-04-12T21:13:52.710Z,1.13
2023-04-12T21:16:25.216Z,1.13
2023-04-12T21:18:56.360Z,1.05
2023-04-12T21:26:30.816Z,1.33
2023-04-12T21:29:01.486Z,0.70
2023-04-12T21:31:32.815Z,0.57
2023-04-12T21:34:04.036Z,2.25
2023-04-12T21:36:34.489Z,1.02
2023-04-12T21:39:04.857Z,0.70
2023-04-12T21:41:37.799Z,0.93
2023-04-12T21:44:08.144Z,1.10
2023-04-12T21:46:38.613Z,0.68
2023-04-12T21:49:08.987Z,0.40
2023-04-12T21:51:39.362Z,0.45
2023-04-12T21:54:09.681Z,0.50
2023-04-12T21:56:42.700Z,2.47
2023-04-12T21:59:13.065Z,1.92
2023-04-12T22:01:43.428Z,0.98
2023-04-12T22:04:13.965Z,1.48
2023-04-12T22:06:44.907Z,1.45
2023-04-12T22:09:15.180Z,1.35
2023-04-12T22:11:49.373Z,0.85
2023-04-12T22:14:19.745Z,0.63
2023-04-12T22:16:50.107Z,0.70
2023-04-12T22:19:20.541Z,0.55
2023-04-12T22:21:50.958Z,1.00
2023-04-12T22:24:21.496Z,0.88
2023-04-12T22:26:56.440Z,0.68
2023-04-12T22:29:27.788Z,3.97
2023-04-12T22:34:28.942Z,1.33
2023-04-12T22:37:03.685Z,0.45
2023-04-12T22:39:34.476Z,1.52
2023-04-12T22:42:07.429Z,0.35
2023-04-12T22:44:40.187Z,0.70
2023-04-12T22:47:10.685Z,0.93
2023-04-12T22:49:50.590Z,0.63
2023-04-12T22:52:21.946Z,2.17
2023-04-12T22:57:25.876Z,4.88
2023-04-12T22:59:57.831Z,0.88
2023-04-12T23:02:28.246Z,2.85
2023-04-12T23:04:58.595Z,7.28
2023-04-12T23:07:30.476Z,0.95
2023-04-12T23:10:02.337Z,2.22
2023-04-12T23:12:36.384Z,4.07
2023-04-12T23:15:07.211Z,1.88
2023-04-12T23:17:37.561Z,1.55
2023-04-12T23:20:10.317Z,0.63
2023-04-12T23:22:57.533Z,3.40
2023-04-12T23:25:38.165Z,1.73
2023-04-12T23:28:13.637Z,1.45
2023-04-12T23:30:47.643Z,2.10
2023-04-12T23:33:18.443Z,1.25
2023-04-12T23:35:49.650Z,0.60
2023-04-12T23:38:23.462Z,1.63
2023-04-12T23:40:54.622Z,2.53
2023-04-12T23:43:28.808Z,1.92
2023-04-12T23:45:59.213Z,2.47
2023-04-12T23:48:29.609Z,1.70
2023-04-12T23:51:00.021Z,0.75
2023-04-12T23:53:30.602Z,1.20
2023-04-12T23:56:00.963Z,2.40
2023-04-12T23:58:33.936Z,3.30
